createdAt,value
2023-05-18T00:00:19.390Z,64.29
2023-05-18T00:01:19.386Z,63.49
2023-05-18T00:02:19.385Z,62.52
2023-05-18T00:03:19.435Z,62.68
2023-05-18T00:04:19.407Z,62.52
2023-05-18T00:05:51.219Z,62.36
2023-05-18T00:06:19.316Z,62.52
2023-05-18T00:07:19.309Z,61.07
2023-05-18T00:08:19.333Z,58.97
2023-05-18T00:09:19.277Z,60.91
2023-05-18T00:10:19.329Z,62.52
2023-05-18T00:11:19.337Z,61.55
2023-05-18T00:12:19.236Z,65.10
2023-05-18T00:13:19.241Z,64.13
2023-05-18T00:14:19.217Z,63.33
2023-05-18T00:15:19.232Z,61.23
2023-05-18T00:16:19.274Z,62.04
2023-05-18T00:17:19.195Z,60.91
2023-05-18T00:18:19.185Z,61.55
2023-05-18T00:19:19.330Z,61.07
2023-05-18T00:20:19.162Z,62.20
2023-05-18T00:21:19.209Z,62.52
2023-05-18T00:22:19.284Z,64.13
2023-05-18T00:23:19.130Z,65.58
2023-05-18T00:24:19.143Z,64.61
2023-05-18T00:25:19.225Z,62.04
2023-05-18T00:26:19.123Z,63.16
2023-05-18T00:27:19.091Z,62.52
2023-05-18T00:28:19.083Z,60.59
2023-05-18T00:29:19.078Z,62.04
2023-05-18T00:30:19.122Z,61.71
2023-05-18T00:31:19.076Z,61.87
2023-05-18T00:32:19.045Z,65.58
2023-05-18T00:33:19.030Z,64.29
2023-05-18T00:34:19.041Z,63.65
2023-05-18T00:35:19.002Z,61.55
2023-05-18T00:36:19.000Z,63.65
2023-05-18T00:37:19.001Z,63.81
2023-05-18T00:38:18.993Z,60.59
2023-05-18T00:39:18.992Z,60.91
2023-05-18T00:40:18.992Z,62.36
2023-05-18T00:41:18.949Z,61.55
2023-05-18T00:42:18.950Z,62.20
2023-05-18T00:43:18.936Z,61.55
2023-05-18T00:44:18.943Z,63.49
2023-05-18T00:45:18.916Z,61.55
2023-05-18T00:46:18.910Z,63.49
2023-05-18T00:47:18.935Z,62.04
2023-05-18T00:48:18.937Z,62.52
2023-05-18T00:49:18.964Z,64.45
2023-05-18T00:50:18.871Z,62.52
2023-05-18T00:51:18.917Z,62.52
2023-05-18T00:52:18.852Z,62.04
2023-05-18T00:53:18.830Z,62.04
2023-05-18T00:54:18.845Z,60.59
2023-05-18T00:55:18.819Z,61.39
2023-05-18T00:56:18.817Z,59.62
2023-05-18T00:57:18.809Z,60.42
2023-05-18T00:58:18.817Z,63.16
2023-05-18T00:59:18.812Z,61.39
2023-05-18T01:00:18.799Z,61.87
2023-05-18T01:01:18.803Z,63.00
2023-05-18T01:02:18.772Z,65.42
2023-05-18T01:03:18.821Z,63.49
2023-05-18T01:04:18.735Z,59.94
2023-05-18T01:05:18.721Z,61.23
2023-05-18T01:06:18.744Z,62.52
2023-05-18T01:07:18.710Z,63.97
2023-05-18T01:08:18.709Z,62.04
2023-05-18T01:09:18.688Z,60.91
2023-05-18T01:10:18.689Z,61.39
2023-05-18T01:11:18.727Z,59.78
2023-05-18T01:12:18.672Z,61.39
2023-05-18T01:13:18.669Z,63.65
2023-05-18T01:14:18.631Z,65.58
2023-05-18T01:15:18.658Z,62.36
2023-05-18T01:16:18.619Z,61.87
2023-05-18T01:17:18.799Z,59.78
2023-05-18T01:18:18.607Z,61.55
2023-05-18T01:19:18.659Z,62.20
2023-05-18T01:20:18.586Z,63.65
2023-05-18T01:21:18.567Z,62.68
2023-05-18T01:22:18.585Z,61.07
2023-05-18T01:23:18.554Z,63.00
2023-05-18T01:24:18.545Z,62.52
2023-05-18T01:25:18.542Z,60.91
2023-05-18T01:26:18.523Z,63.16
2023-05-18T01:27:18.530Z,62.36
2023-05-18T01:28:18.507Z,61.07
2023-05-18T01:29:18.493Z,63.65
2023-05-18T01:30:18.520Z,62.68
2023-05-18T01:31:18.683Z,61.55
2023-05-18T01:32:18.456Z,58.81
2023-05-18T01:33:18.448Z,61.87
2023-05-18T01:34:18.432Z,62.04
2023-05-18T01:35:18.452Z,61.55
2023-05-18T01:36:18.457Z,64.45
2023-05-18T01:37:18.434Z,63.49
2023-05-18T01:38:18.414Z,63.81
2023-05-18T01:39:18.393Z,61.39
2023-05-18T01:40:18.406Z,61.39
2023-05-18T01:41:18.395Z,60.10
2023-05-18T01:42:18.361Z,62.68
2023-05-18T01:43:18.350Z,62.68
2023-05-18T01:44:18.356Z,61.07
2023-05-18T01:45:18.364Z,59.94
2023-05-18T01:46:18.371Z,59.46
2023-05-18T01:47:18.328Z,62.36
2023-05-18T01:48:18.304Z,61.55
2023-05-18T01:49:18.291Z,63.81
2023-05-18T01:50:18.318Z,63.33
2023-05-18T01:51:18.294Z,64.94
2023-05-18T01:52:18.293Z,62.52
2023-05-18T01:53:18.272Z,62.52
2023-05-18T01:54:19.284Z,61.87
2023-05-18T01:55:18.261Z,59.78
2023-05-18T01:56:18.237Z,60.26
2023-05-18T01:57:18.224Z,61.23
2023-05-18T01:58:18.226Z,63.33
2023-05-18T01:59:18.223Z,61.07
2023-05-18T02:00:18.201Z,63.00
2023-05-18T02:01:18.204Z,61.71
2023-05-18T02:02:18.232Z,61.55
2023-05-18T02:03:18.252Z,61.07
2023-05-18T02:04:18.223Z,60.75
2023-05-18T02:05:18.167Z,62.68
2023-05-18T02:06:18.146Z,63.65
2023-05-18T02:07:18.131Z,62.20
2023-05-18T02:08:18.153Z,62.04
2023-05-18T02:09:18.137Z,61.23
2023-05-18T02:10:18.105Z,60.26
2023-05-18T02:11:18.095Z,60.42
2023-05-18T02:12:18.087Z,59.94
2023-05-18T02:13:18.088Z,61.87
2023-05-18T02:14:18.061Z,64.29
2023-05-18T02:15:18.051Z,61.23
2023-05-18T02:16:18.057Z,59.78
2023-05-18T02:17:18.031Z,60.26
2023-05-18T02:18:18.039Z,62.52
2023-05-18T02:19:18.081Z,63.33
2023-05-18T02:20:18.017Z,59.94
2023-05-18T02:21:18.013Z,63.49
2023-05-18T02:22:18.002Z,61.07
2023-05-18T02:23:17.988Z,59.62
2023-05-18T02:24:17.955Z,61.55
2023-05-18T02:25:17.955Z,63.97
2023-05-18T02:26:17.942Z,62.68
2023-05-18T02:27:17.964Z,63.00
2023-05-18T02:28:17.921Z,62.36
2023-05-18T02:29:17.919Z,61.71
2023-05-18T02:30:17.917Z,63.81
2023-05-18T02:31:17.957Z,62.52
2023-05-18T02:32:17.941Z,63.97
2023-05-18T02:33:17.890Z,61.23
2023-05-18T02:34:17.892Z,61.87
2023-05-18T02:35:17.870Z,66.55
2023-05-18T02:36:17.851Z,65.90
2023-05-18T02:37:17.865Z,65.42
2023-05-18T02:38:17.835Z,65.10
2023-05-18T02:39:17.824Z,62.84
2023-05-18T02:40:17.838Z,62.04
2023-05-18T02:41:17.840Z,60.26
2023-05-18T02:42:17.813Z,61.07
2023-05-18T02:43:17.786Z,61.55
2023-05-18T02:44:17.784Z,63.49
2023-05-18T02:45:17.777Z,63.33
2023-05-18T02:46:17.870Z,61.87
2023-05-18T02:47:17.760Z,61.71
2023-05-18T02:48:17.747Z,62.52
2023-05-18T02:49:17.749Z,63.81
2023-05-18T02:50:17.732Z,62.20
2023-05-18T02:51:17.740Z,63.00
2023-05-18T02:52:18.721Z,62.52
2023-05-18T02:53:17.709Z,60.75
2023-05-18T02:54:17.709Z,62.84
2023-05-18T02:55:17.713Z,65.42
2023-05-18T02:56:17.695Z,63.65
2023-05-18T02:57:17.672Z,64.29
2023-05-18T02:58:17.669Z,66.39
2023-05-18T02:59:17.658Z,65.58
2023-05-18T03:00:17.672Z,63.49
2023-05-18T03:01:17.697Z,63.00
2023-05-18T03:02:17.655Z,64.61
2023-05-18T03:03:17.765Z,62.36
2023-05-18T03:04:17.659Z,66.06
2023-05-18T03:05:17.599Z,63.97
2023-05-18T03:06:17.610Z,62.84
2023-05-18T03:07:17.580Z,61.55
2023-05-18T03:08:17.578Z,63.49
2023-05-18T03:09:17.590Z,64.29
2023-05-18T03:10:17.570Z,63.49
2023-05-18T03:11:17.554Z,63.65
2023-05-18T03:12:17.576Z,62.84
2023-05-18T03:13:17.533Z,62.52
2023-05-18T03:14:17.538Z,63.97
2023-05-18T03:15:17.531Z,63.00
2023-05-18T03:16:17.543Z,63.16
2023-05-18T03:17:17.501Z,65.58
2023-05-18T03:18:17.491Z,62.20
2023-05-18T03:19:17.578Z,61.87
2023-05-18T03:20:17.478Z,62.52
2023-05-18T03:21:17.480Z,63.97
2023-05-18T03:22:17.462Z,63.49
2023-05-18T03:23:17.464Z,65.10
2023-05-18T03:24:17.465Z,62.84
2023-05-18T03:25:17.450Z,64.61
2023-05-18T03:26:17.422Z,65.10
2023-05-18T03:27:17.415Z,65.26
2023-05-18T03:28:17.427Z,65.90
2023-05-18T03:29:17.410Z,64.61
2023-05-18T03:30:17.391Z,65.58
2023-05-18T03:31:17.399Z,64.29
2023-05-18T03:32:17.375Z,65.26
2023-05-18T03:33:17.482Z,64.94
2023-05-18T03:34:17.351Z,63.97
2023-05-18T03:35:17.359Z,62.84
2023-05-18T03:36:17.338Z,63.49
2023-05-18T03:37:17.355Z,65.74
2023-05-18T03:38:17.343Z,65.26
2023-05-18T03:39:17.312Z,63.16
2023-05-18T03:40:17.311Z,63.97
2023-05-18T03:41:17.293Z,66.06
2023-05-18T03:42:17.390Z,63.97
2023-05-18T03:43:17.282Z,63.33
2023-05-18T03:44:17.264Z,63.65
2023-05-18T03:45:17.259Z,66.06
2023-05-18T03:46:17.268Z,66.55
2023-05-18T03:47:17.257Z,67.35
2023-05-18T03:48:17.229Z,67.84
2023-05-18T03:49:17.231Z,65.42
2023-05-18T03:50:17.209Z,66.23
2023-05-18T03:51:17.218Z,65.42
2023-05-18T03:52:17.201Z,66.23
2023-05-18T03:53:17.176Z,65.42
2023-05-18T03:54:17.181Z,66.55
2023-05-18T03:55:17.179Z,66.06
2023-05-18T03:56:17.148Z,67.03
2023-05-18T03:57:17.146Z,66.06
2023-05-18T03:58:17.186Z,65.10
2023-05-18T03:59:17.160Z,65.26
2023-05-18T04:00:17.108Z,66.06
2023-05-18T04:01:17.158Z,66.55
2023-05-18T04:02:17.122Z,65.74
2023-05-18T04:03:17.255Z,67.51
2023-05-18T04:04:17.116Z,66.39
2023-05-18T04:05:17.096Z,63.49
2023-05-18T04:06:17.078Z,63.81
2023-05-18T04:07:17.058Z,67.19
2023-05-18T04:08:17.039Z,67.68
2023-05-18T04:09:17.041Z,64.45
2023-05-18T04:10:17.042Z,65.58
2023-05-18T04:11:17.009Z,66.23
2023-05-18T04:12:17.010Z,64.61
2023-05-18T04:13:16.986Z,64.61
2023-05-18T04:14:16.987Z,66.39
2023-05-18T04:15:17.001Z,67.84
2023-05-18T04:16:17.109Z,66.71
2023-05-18T04:17:16.961Z,65.26
2023-05-18T04:18:16.969Z,65.90
2023-05-18T04:19:17.011Z,65.58
2023-05-18T04:20:17.022Z,67.84
2023-05-18T04:21:16.954Z,66.87
2023-05-18T04:22:16.909Z,65.42
2023-05-18T04:23:16.939Z,66.55
2023-05-18T04:24:16.997Z,66.39
2023-05-18T04:25:16.910Z,65.58
2023-05-18T04:26:16.938Z,66.71
2023-05-18T04:27:16.877Z,66.55
2023-05-18T04:28:16.892Z,64.29
2023-05-18T04:29:16.854Z,67.35
2023-05-18T04:30:16.838Z,68.64
2023-05-18T04:31:16.833Z,66.23
2023-05-18T04:32:16.948Z,68.32
2023-05-18T04:33:16.826Z,67.51
2023-05-18T04:34:16.804Z,67.84
2023-05-18T04:35:16.802Z,68.32
2023-05-18T04:36:17.715Z,67.19
2023-05-18T04:37:16.765Z,68.00
2023-05-18T04:38:16.821Z,68.32
2023-05-18T04:39:16.797Z,66.39
2023-05-18T04:40:16.764Z,66.55
2023-05-18T04:41:16.748Z,65.90
2023-05-18T04:42:16.744Z,67.68
2023-05-18T04:43:16.829Z,67.68
2023-05-18T04:44:16.748Z,67.68
2023-05-18T04:45:16.719Z,67.03
2023-05-18T04:46:16.755Z,66.71
2023-05-18T04:47:16.710Z,68.00
2023-05-18T04:48:16.700Z,67.35
2023-05-18T04:49:17.684Z,65.74
2023-05-18T04:50:16.670Z,65.58
2023-05-18T04:51:16.699Z,66.23
2023-05-18T04:52:16.672Z,64.78
2023-05-18T04:53:16.697Z,65.74
2023-05-18T04:54:16.638Z,66.39
2023-05-18T04:55:16.647Z,68.00
2023-05-18T04:56:16.624Z,67.51
2023-05-18T04:57:16.618Z,67.51
2023-05-18T04:58:16.641Z,67.35
2023-05-18T04:59:16.597Z,67.03
2023-05-18T05:00:16.597Z,65.42
2023-05-18T05:01:16.617Z,63.65
2023-05-18T05:02:16.599Z,65.26
2023-05-18T05:03:16.688Z,65.26
2023-05-18T05:04:16.562Z,65.42
2023-05-18T05:05:16.536Z,65.58
2023-05-18T05:06:16.529Z,64.94
2023-05-18T05:07:16.536Z,64.78
2023-05-18T05:08:16.532Z,63.81
2023-05-18T05:09:16.500Z,65.42
2023-05-18T05:10:16.489Z,65.74
2023-05-18T05:11:16.486Z,65.42
2023-05-18T05:12:16.521Z,65.10
2023-05-18T05:13:16.478Z,62.04
2023-05-18T05:14:16.448Z,64.45
2023-05-18T05:15:16.435Z,63.97
2023-05-18T05:16:16.471Z,66.55
2023-05-18T05:17:16.436Z,64.29
2023-05-18T05:18:16.415Z,63.81
2023-05-18T05:19:16.451Z,65.58
2023-05-18T05:20:16.452Z,65.10
2023-05-18T05:21:16.452Z,62.84
2023-05-18T05:22:16.370Z,63.81
2023-05-18T05:23:16.383Z,65.74
2023-05-18T05:24:16.354Z,63.00
2023-05-18T05:25:16.352Z,64.94
2023-05-18T05:26:16.356Z,65.42
2023-05-18T05:27:16.316Z,65.90
2023-05-18T05:28:16.309Z,64.78
2023-05-18T05:29:16.297Z,64.61
2023-05-18T05:30:16.298Z,65.90
2023-05-18T05:31:16.399Z,65.42
2023-05-18T05:32:16.261Z,64.29
2023-05-18T05:33:16.279Z,67.68
2023-05-18T05:34:16.263Z,65.58
2023-05-18T05:35:16.271Z,65.42
2023-05-18T05:36:16.216Z,66.39
2023-05-18T05:37:16.208Z,65.42
2023-05-18T05:38:16.202Z,64.78
2023-05-18T05:39:16.199Z,66.06
2023-05-18T05:40:16.219Z,65.58
2023-05-18T05:41:16.195Z,65.58
2023-05-18T05:42:16.151Z,64.45
2023-05-18T05:43:16.152Z,63.00
2023-05-18T05:44:16.139Z,64.29
2023-05-18T05:45:16.143Z,63.97
2023-05-18T05:46:16.140Z,66.06
2023-05-18T05:47:16.137Z,66.39
2023-05-18T05:48:16.141Z,64.78
2023-05-18T05:49:16.092Z,62.36
2023-05-18T05:50:16.117Z,64.61
2023-05-18T05:51:16.060Z,65.42
2023-05-18T05:52:16.050Z,65.10
2023-05-18T05:53:16.034Z,64.78
2023-05-18T05:54:16.045Z,61.55
2023-05-18T05:55:16.028Z,62.36
2023-05-18T05:56:16.004Z,62.84
2023-05-18T05:57:16.012Z,63.81
2023-05-18T05:58:15.988Z,62.04
2023-05-18T05:59:15.978Z,63.81
2023-05-18T06:00:15.991Z,62.68
2023-05-18T06:01:15.950Z,63.00
2023-05-18T06:02:16.009Z,64.29
2023-05-18T06:03:15.993Z,63.97
2023-05-18T06:04:16.005Z,62.36
2023-05-18T06:05:15.904Z,61.55
2023-05-18T06:06:41.792Z,62.52
2023-05-18T06:07:15.876Z,62.36
2023-05-18T06:08:15.880Z,63.33
2023-05-18T06:09:15.857Z,63.00
2023-05-18T06:10:15.847Z,64.45
2023-05-18T06:11:15.830Z,62.68
2023-05-18T06:12:15.813Z,63.81
2023-05-18T06:13:15.824Z,63.65
2023-05-18T06:14:15.799Z,63.16
2023-05-18T06:15:15.788Z,61.87
2023-05-18T06:16:15.830Z,63.33
2023-05-18T06:17:15.783Z,66.71
2023-05-18T06:18:15.806Z,65.10
2023-05-18T06:19:15.782Z,64.29
2023-05-18T06:20:15.758Z,65.26
2023-05-18T06:21:15.729Z,63.16
2023-05-18T06:22:16.022Z,61.71
2023-05-18T06:23:15.699Z,65.42
2023-05-18T06:24:15.700Z,62.04
2023-05-18T06:25:15.778Z,62.68
2023-05-18T06:26:15.700Z,63.33
2023-05-18T06:27:15.677Z,63.33
2023-05-18T06:28:15.686Z,64.94
2023-05-18T06:29:15.639Z,63.00
2023-05-18T06:30:15.673Z,66.39
2023-05-18T06:31:15.642Z,66.39
2023-05-18T06:32:15.645Z,64.78
2023-05-18T06:33:15.621Z,66.23
2023-05-18T06:34:15.587Z,63.65
2023-05-18T06:35:15.672Z,63.33
2023-05-18T06:36:15.585Z,63.33
2023-05-18T06:37:15.554Z,63.33
2023-05-18T06:38:15.540Z,62.04
2023-05-18T06:39:15.544Z,62.04
2023-05-18T06:40:15.558Z,63.33
2023-05-18T06:41:15.495Z,63.81
2023-05-18T06:42:15.484Z,63.97
2023-05-18T06:43:15.472Z,65.10
2023-05-18T06:44:15.510Z,63.97
2023-05-18T06:45:15.453Z,64.61
2023-05-18T06:46:15.512Z,63.33
2023-05-18T06:47:15.449Z,61.07
2023-05-18T06:48:15.431Z,61.55
2023-05-18T06:49:15.412Z,62.84
2023-05-18T06:50:15.445Z,63.33
2023-05-18T06:51:15.462Z,62.68
2023-05-18T06:52:15.404Z,63.33
2023-05-18T06:53:15.377Z,64.61
2023-05-18T06:54:15.372Z,64.61
2023-05-18T06:55:15.480Z,62.36
2023-05-18T06:56:15.364Z,64.45
2023-05-18T06:57:15.342Z,63.00
2023-05-18T06:58:15.336Z,63.00
2023-05-18T06:59:15.332Z,63.65
2023-05-18T07:00:15.404Z,61.55
2023-05-18T07:01:15.358Z,62.04
2023-05-18T07:02:15.296Z,63.81
2023-05-18T07:03:15.346Z,62.04
2023-05-18T07:04:15.347Z,63.49
2023-05-18T07:05:16.291Z,63.97
2023-05-18T07:06:15.243Z,63.49
2023-05-18T07:07:15.285Z,61.55
2023-05-18T07:08:15.335Z,62.36
2023-05-18T07:09:15.242Z,63.33
2023-05-18T07:10:15.208Z,61.23
2023-05-18T07:11:15.193Z,61.07
2023-05-18T07:12:15.187Z,63.33
2023-05-18T07:13:15.179Z,62.68
2023-05-18T07:14:15.197Z,60.42
2023-05-18T07:15:15.179Z,63.49
2023-05-18T07:16:15.159Z,62.52
2023-05-18T07:17:15.143Z,63.33
2023-05-18T07:18:15.203Z,64.45
2023-05-18T07:19:15.227Z,63.49
2023-05-18T07:20:15.124Z,63.49
2023-05-18T07:21:15.097Z,64.61
2023-05-18T07:22:15.141Z,63.16
2023-05-18T07:23:15.097Z,64.29
2023-05-18T07:24:16.103Z,63.65
2023-05-18T07:25:15.061Z,63.16
2023-05-18T07:26:15.103Z,63.16
2023-05-18T07:27:15.052Z,63.97
2023-05-18T07:28:15.086Z,63.81
2023-05-18T07:29:15.042Z,65.26
2023-05-18T07:30:15.017Z,63.97
2023-05-18T07:31:15.058Z,63.00
2023-05-18T07:32:14.998Z,63.97
2023-05-18T07:33:15.019Z,63.16
2023-05-18T07:34:15.008Z,63.16
2023-05-18T07:35:14.966Z,63.65
2023-05-18T07:36:15.002Z,62.68
2023-05-18T07:37:15.050Z,62.52
2023-05-18T07:38:14.944Z,63.00
2023-05-18T07:39:14.933Z,63.33
2023-05-18T07:40:14.922Z,62.20
2023-05-18T07:41:14.920Z,63.49
2023-05-18T07:42:14.918Z,63.16
2023-05-18T07:43:14.891Z,62.04
2023-05-18T07:44:14.900Z,62.04
2023-05-18T07:45:14.889Z,65.42
2023-05-18T07:46:14.893Z,65.26
2023-05-18T07:47:14.873Z,64.78
2023-05-18T07:48:14.871Z,65.10
2023-05-18T07:49:14.827Z,63.33
2023-05-18T07:50:14.849Z,63.33
2023-05-18T07:51:14.825Z,62.04
2023-05-18T07:52:14.856Z,62.84
2023-05-18T07:53:14.789Z,63.16
2023-05-18T07:54:14.796Z,62.36
2023-05-18T07:55:14.803Z,63.97
2023-05-18T07:56:14.781Z,64.61
2023-05-18T07:57:14.743Z,63.16
2023-05-18T07:58:14.749Z,64.94
2023-05-18T07:59:14.734Z,64.29
2023-05-18T08:00:14.726Z,65.74
2023-05-18T08:01:14.742Z,63.97
2023-05-18T08:02:14.891Z,62.52
2023-05-18T08:03:14.768Z,65.58
2023-05-18T08:04:14.762Z,63.16
2023-05-18T08:05:14.978Z,62.68
2023-05-18T08:06:15.386Z,63.00
2023-05-18T08:07:14.642Z,62.84
2023-05-18T08:08:14.639Z,63.65
2023-05-18T08:09:14.622Z,63.65
2023-05-18T08:10:14.640Z,62.36
2023-05-18T08:11:14.601Z,62.04
2023-05-18T08:12:14.593Z,63.16
2023-05-18T08:13:14.591Z,63.00
2023-05-18T08:14:14.575Z,62.20
2023-05-18T08:15:14.594Z,63.16
2023-05-18T08:16:14.574Z,62.52
2023-05-18T08:17:14.604Z,61.39
2023-05-18T08:18:14.568Z,61.39
2023-05-18T08:19:14.603Z,63.16
2023-05-18T08:20:14.547Z,63.16
2023-05-18T08:21:14.523Z,63.33
2023-05-18T08:22:14.516Z,63.65
2023-05-18T08:23:14.494Z,63.49
2023-05-18T08:24:14.508Z,61.39
2023-05-18T08:25:14.479Z,64.29
2023-05-18T08:26:14.453Z,63.65
2023-05-18T08:27:14.445Z,61.71
2023-05-18T08:28:14.439Z,61.23
2023-05-18T08:29:14.440Z,62.04
2023-05-18T08:30:14.415Z,63.33
2023-05-18T08:31:14.403Z,62.84
2023-05-18T08:32:14.519Z,61.39
2023-05-18T08:33:14.488Z,60.42
2023-05-18T08:34:14.418Z,60.75
2023-05-18T08:35:14.379Z,61.39
2023-05-18T08:36:14.352Z,61.39
2023-05-18T08:37:14.350Z,60.26
2023-05-18T08:38:14.359Z,60.26
2023-05-18T08:39:14.342Z,60.91
2023-05-18T08:40:14.333Z,59.46
2023-05-18T08:41:14.314Z,58.33
2023-05-18T08:42:14.303Z,58.81
2023-05-18T08:43:14.312Z,61.07
2023-05-18T08:44:14.273Z,60.59
2023-05-18T08:45:14.272Z,60.91
2023-05-18T08:46:14.261Z,62.36
2023-05-18T08:47:14.313Z,62.04
2023-05-18T08:48:14.329Z,60.59
2023-05-18T08:49:14.289Z,59.14
2023-05-18T08:50:14.218Z,59.46
2023-05-18T08:51:14.219Z,59.62
2023-05-18T08:52:14.214Z,60.10
2023-05-18T08:53:14.188Z,59.78
2023-05-18T08:54:14.189Z,61.07
2023-05-18T08:55:14.175Z,61.71
2023-05-18T08:56:14.156Z,62.68
2023-05-18T08:57:14.160Z,63.00
2023-05-18T08:58:14.151Z,63.00
2023-05-18T08:59:14.131Z,62.20
2023-05-18T09:00:14.119Z,63.00
2023-05-18T09:01:14.180Z,62.04
2023-05-18T09:02:14.132Z,60.75
2023-05-18T09:03:14.164Z,61.07
2023-05-18T09:04:14.091Z,60.10
2023-05-18T09:05:14.133Z,59.62
2023-05-18T09:06:14.079Z,56.88
2023-05-18T09:07:14.076Z,59.46
2023-05-18T09:08:14.025Z,59.94
2023-05-18T09:09:14.033Z,60.59
2023-05-18T09:10:14.012Z,60.10
2023-05-18T09:11:14.007Z,61.23
2023-05-18T09:12:14.066Z,61.23
2023-05-18T09:13:13.992Z,61.71
2023-05-18T09:14:13.984Z,62.84
2023-05-18T09:15:13.977Z,62.52
2023-05-18T09:16:14.043Z,63.97
2023-05-18T09:17:13.975Z,62.36
2023-05-18T09:18:13.947Z,62.68
2023-05-18T09:19:15.011Z,61.55
2023-05-18T09:20:13.915Z,62.20
2023-05-18T09:21:13.958Z,61.55
2023-05-18T09:22:13.897Z,62.36
2023-05-18T09:23:13.892Z,61.87
2023-05-18T09:24:13.897Z,62.68
2023-05-18T09:25:13.879Z,62.68
2023-05-18T09:26:14.868Z,64.61
2023-05-18T09:27:13.854Z,63.81
2023-05-18T09:28:13.831Z,64.45
2023-05-18T09:29:13.836Z,61.39
2023-05-18T09:30:13.835Z,61.55
2023-05-18T09:31:13.878Z,62.84
2023-05-18T09:32:13.800Z,62.84
2023-05-18T09:33:13.984Z,63.16
2023-05-18T09:34:13.806Z,63.65
2023-05-18T09:35:13.778Z,63.16
2023-05-18T09:36:13.772Z,64.13
2023-05-18T09:37:13.748Z,63.00
2023-05-18T09:38:13.746Z,62.36
2023-05-18T09:39:13.737Z,63.16
2023-05-18T09:40:13.718Z,61.71
2023-05-18T09:41:13.713Z,61.39
2023-05-18T09:42:13.694Z,61.07
2023-05-18T09:43:13.699Z,61.87
2023-05-18T09:44:13.693Z,62.68
2023-05-18T09:45:13.682Z,61.23
2023-05-18T09:46:13.744Z,61.23
2023-05-18T09:47:13.645Z,60.75
2023-05-18T09:48:13.721Z,60.91
2023-05-18T09:49:13.635Z,61.71
2023-05-18T09:50:13.622Z,63.16
2023-05-18T09:51:13.611Z,62.52
2023-05-18T09:52:13.610Z,61.39
2023-05-18T09:53:13.652Z,60.59
2023-05-18T09:54:13.580Z,61.39
2023-05-18T09:55:13.587Z,61.87
2023-05-18T09:56:13.569Z,61.07
2023-05-18T09:57:13.570Z,60.10
2023-05-18T09:58:13.601Z,62.68
2023-05-18T09:59:13.573Z,62.84
2023-05-18T10:00:13.557Z,63.00
2023-05-18T10:01:13.532Z,63.16
2023-05-18T10:02:13.523Z,62.52
2023-05-18T10:03:13.505Z,61.87
2023-05-18T10:04:13.611Z,61.07
2023-05-18T10:05:13.497Z,61.87
2023-05-18T10:06:13.467Z,61.87
2023-05-18T10:07:13.484Z,61.55
2023-05-18T10:08:13.474Z,61.87
2023-05-18T10:09:13.451Z,62.36
2023-05-18T10:10:13.446Z,61.55
2023-05-18T10:11:13.431Z,61.71
2023-05-18T10:12:13.462Z,64.94
2023-05-18T10:13:13.435Z,61.87
2023-05-18T10:14:13.410Z,61.55
2023-05-18T10:15:13.406Z,60.75
2023-05-18T10:16:13.502Z,61.23
2023-05-18T10:17:15.537Z,58.65
2023-05-18T10:18:14.486Z,59.46
2023-05-18T10:19:13.445Z,58.81
2023-05-18T10:20:13.344Z,60.10
2023-05-18T10:21:13.393Z,57.69
2023-05-18T10:22:13.405Z,58.49
2023-05-18T10:23:13.315Z,58.97
2023-05-18T10:24:13.296Z,59.30
2023-05-18T10:25:13.337Z,60.75
2023-05-18T10:26:13.309Z,60.26
2023-05-18T10:27:13.273Z,59.78
2023-05-18T10:28:13.263Z,60.42
2023-05-18T10:29:13.319Z,60.26
2023-05-18T10:30:13.290Z,60.26
2023-05-18T10:31:13.298Z,58.33
2023-05-18T10:32:13.224Z,57.52
2023-05-18T10:33:24.453Z,59.94
2023-05-18T10:34:15.191Z,61.07
2023-05-18T10:35:13.226Z,59.78
2023-05-18T10:36:13.207Z,60.42
2023-05-18T10:37:13.187Z,59.14
2023-05-18T10:38:13.153Z,60.59
2023-05-18T10:39:13.170Z,61.23
2023-05-18T10:40:13.178Z,60.59
2023-05-18T10:41:13.174Z,59.94
2023-05-18T10:42:13.133Z,60.42
2023-05-18T10:43:13.115Z,61.55
2023-05-18T10:44:13.108Z,60.91
2023-05-18T10:45:13.087Z,60.10
2023-05-18T10:46:13.123Z,58.81
2023-05-18T10:47:13.283Z,58.65
2023-05-18T10:48:13.123Z,61.07
2023-05-18T10:49:13.067Z,58.65
2023-05-18T10:50:13.111Z,59.46
2023-05-18T10:51:13.024Z,59.14
2023-05-18T10:52:13.019Z,60.91
2023-05-18T10:53:13.008Z,60.10
2023-05-18T10:54:13.014Z,57.52
2023-05-18T10:55:12.993Z,59.78
2023-05-18T10:56:13.007Z,57.52
2023-05-18T10:57:12.998Z,57.36
2023-05-18T10:58:12.963Z,58.01
2023-05-18T10:59:13.008Z,57.69
2023-05-18T11:00:12.925Z,60.59
2023-05-18T11:01:12.998Z,59.94
2023-05-18T11:02:13.049Z,61.71
2023-05-18T11:03:12.994Z,61.55
2023-05-18T11:04:12.967Z,61.23
2023-05-18T11:05:12.989Z,61.23
2023-05-18T11:06:12.895Z,59.46
2023-05-18T11:07:12.867Z,60.10
2023-05-18T11:08:12.872Z,60.42
2023-05-18T11:09:12.843Z,59.78
2023-05-18T11:10:12.836Z,59.94
2023-05-18T11:11:12.827Z,60.42
2023-05-18T11:12:12.814Z,62.20
2023-05-18T11:13:12.833Z,61.55
2023-05-18T11:14:12.800Z,58.49
2023-05-18T11:15:12.788Z,58.97
2023-05-18T11:16:12.826Z,60.75
2023-05-18T11:17:12.792Z,60.10
2023-05-18T11:18:12.828Z,60.59
2023-05-18T11:19:12.832Z,58.81
2023-05-18T11:20:12.749Z,59.46
2023-05-18T11:21:12.747Z,61.55
2023-05-18T11:22:12.745Z,61.87
2023-05-18T11:23:12.722Z,61.39
2023-05-18T11:24:12.709Z,59.78
2023-05-18T11:25:12.682Z,61.23
2023-05-18T11:26:12.680Z,61.23
2023-05-18T11:27:12.687Z,60.75
2023-05-18T11:28:12.659Z,58.49
2023-05-18T11:29:12.656Z,56.88
2023-05-18T11:30:15.820Z,57.85
2023-05-18T11:31:13.684Z,60.75
2023-05-18T11:33:13.925Z,61.23
2023-05-18T11:34:12.602Z,59.94
2023-05-18T11:35:12.591Z,58.49
2023-05-18T11:36:12.613Z,60.42
2023-05-18T11:37:12.573Z,61.07
2023-05-18T11:38:12.577Z,60.10
2023-05-18T11:39:12.559Z,58.65
2023-05-18T11:40:12.556Z,58.81
2023-05-18T11:41:12.547Z,60.59
2023-05-18T11:42:12.527Z,61.07
2023-05-18T11:43:12.527Z,61.55
2023-05-18T11:44:12.567Z,63.00
2023-05-18T11:45:12.516Z,63.16
2023-05-18T11:46:12.489Z,61.39
2023-05-18T11:47:12.473Z,62.20
2023-05-18T11:48:12.499Z,63.16
2023-05-18T11:49:12.504Z,61.71
2023-05-18T11:50:12.475Z,63.16
2023-05-18T11:51:12.436Z,63.00
2023-05-18T11:52:12.429Z,61.87
2023-05-18T11:53:12.412Z,59.62
2023-05-18T11:54:12.387Z,60.26
2023-05-18T11:55:12.407Z,59.14
2023-05-18T11:56:12.378Z,56.24
2023-05-18T11:57:12.370Z,54.95
2023-05-18T11:58:12.368Z,56.72
2023-05-18T11:59:12.368Z,59.78
2023-05-18T12:00:12.663Z,59.62
2023-05-18T12:01:12.335Z,59.46
2023-05-18T12:02:12.354Z,59.46
2023-05-18T12:03:12.368Z,59.62
2023-05-18T12:04:12.399Z,59.62
2023-05-18T12:05:12.293Z,59.46
2023-05-18T12:06:12.294Z,60.10
2023-05-18T12:07:12.278Z,60.75
2023-05-18T12:08:12.292Z,60.42
2023-05-18T12:09:12.264Z,60.59
2023-05-18T12:10:12.354Z,60.42
2023-05-18T12:11:12.232Z,60.75
2023-05-18T12:12:12.279Z,58.81
2023-05-18T12:13:12.247Z,59.94
2023-05-18T12:14:12.219Z,60.59
2023-05-18T12:15:12.192Z,60.91
2023-05-18T12:16:12.207Z,61.55
2023-05-18T12:17:12.266Z,59.30
2023-05-18T12:18:12.274Z,60.75
2023-05-18T12:19:12.185Z,58.49
2023-05-18T12:20:12.228Z,58.97
2023-05-18T12:21:12.130Z,57.69
2023-05-18T12:22:12.112Z,61.07
2023-05-18T12:23:12.133Z,62.68
2023-05-18T12:24:12.122Z,63.16
2023-05-18T12:25:12.096Z,61.71
2023-05-18T12:26:12.091Z,58.65
2023-05-18T12:27:12.100Z,60.91
2023-05-18T12:28:12.089Z,60.26
2023-05-18T12:29:12.051Z,60.59
2023-05-18T12:30:12.050Z,61.55
2023-05-18T12:31:12.096Z,61.39
2023-05-18T12:32:12.026Z,61.55
2023-05-18T12:33:12.124Z,62.20
2023-05-18T12:34:12.015Z,60.75
2023-05-18T12:35:11.999Z,60.10
2023-05-18T12:36:11.986Z,62.52
2023-05-18T12:37:11.975Z,61.39
2023-05-18T12:38:11.993Z,61.23
2023-05-18T12:39:11.960Z,60.59
2023-05-18T12:40:11.944Z,61.55
2023-05-18T12:41:11.938Z,61.23
2023-05-18T12:42:11.949Z,60.42
2023-05-18T12:43:11.935Z,61.39
2023-05-18T12:44:11.910Z,58.49
2023-05-18T12:45:11.906Z,62.20
2023-05-18T12:46:11.924Z,61.71
2023-05-18T12:47:11.906Z,60.59
2023-05-18T12:48:11.890Z,59.62
2023-05-18T12:49:11.860Z,60.59
2023-05-18T12:50:11.852Z,61.07
2023-05-18T12:51:11.836Z,62.20
2023-05-18T12:52:11.854Z,59.30
2023-05-18T12:53:11.819Z,57.69